Time;durP1;ratioP1;P1;durP2;ratioP2;P2;SDS_P1;SDS_P2;PMS_P1;PMS_P2;Temp;Humidity;BMP_temperature;BMP_pressure;BME280_temperature;BME280_humidity;BME280_pressure;Samples;Min_cycle;Max_cycle;Signal;HPM_P1;HPM_P2
2022/08/30 00:02:43;;;;;;;0.93;0.50;;;;;;;19.49;85.47;101504.03;5018688;28;20045;-67
2022/08/30 00:05:08;;;;;;;0.70;0.40;;;;;;;19.54;85.32;101498.16;5030615;28;20156;-67
2022/08/30 00:07:34;;;;;;;1.88;0.73;;;;;;;19.57;85.12;101511.00;5009307;28;20038;-67
2022/08/30 00:10:00;;;;;;;0.50;0.35;;;;;;;19.62;85.34;101500.47;5028258;28;20049;-67
2022/08/30 00:12:26;;;;;;;0.50;0.50;;;;;;;19.66;84.64;101501.25;5009201;28;20435;-68
2022/08/30 00:14:51;;;;;;;0.52;0.50;;;;;;;19.66;84.64;101497.72;5026315;28;20107;-67
2022/08/30 00:17:18;;;;;;;1.08;0.57;;;;;;;19.65;84.39;101494.22;5024821;28;20509;-67
2022/08/30 00:19:44;;;;;;;0.82;0.50;;;;;;;19.67;84.33;101499.28;5029670;28;20033;-67
2022/08/30 00:22:09;;;;;;;0.75;0.50;;;;;;;19.60;84.66;101502.03;5028901;28;20044;-67
2022/08/30 00:24:35;;;;;;;1.58;0.50;;;;;;;19.49;85.38;101490.38;5030032;28;20030;-67
2022/08/30 00:27:00;;;;;;;1.08;0.50;;;;;;;19.63;85.39;101498.50;5009346;28;20132;-67
2022/08/30 00:29:26;;;;;;;1.02;0.50;;;;;;;19.76;84.86;101499.66;5039274;28;20025;-67
2022/08/30 00:31:51;;;;;;;0.75;0.40;;;;;;;19.77;84.33;101507.44;5024370;28;20072;-67
2022/08/30 00:34:17;;;;;;;0.60;0.50;;;;;;;19.72;84.14;101510.56;5027309;28;20035;-67
2022/08/30 00:36:44;;;;;;;1.27;0.50;;;;;;;19.60;84.72;101505.56;5029228;28;20092;-67
2022/08/30 00:39:09;;;;;;;0.50;0.43;;;;;;;19.60;84.87;101502.03;5026715;28;20507;-67
2022/08/30 00:41:36;;;;;;;0.40;0.38;;;;;;;19.54;85.22;101514.53;5033081;28;20033;-67
2022/08/30 00:44:02;;;;;;;0.65;0.38;;;;;;;19.50;85.70;101520.03;5035795;28;20038;-67
2022/08/30 00:46:28;;;;;;;2.80;0.60;;;;;;;19.52;85.33;101516.91;5032112;28;20108;-67
2022/08/30 00:48:55;;;;;;;0.52;0.43;;;;;;;19.50;85.43;101522.75;5026215;28;20558;-67
2022/08/30 00:51:21;;;;;;;0.40;0.40;;;;;;;19.49;85.24;101520.44;5015799;28;21521;-67
2022/08/30 00:53:53;;;;;;;0.50;0.50;;;;;;;19.59;84.77;101517.66;5022255;28;20477;-67
2022/08/30 00:56:20;;;;;;;0.93;0.57;;;;;;;19.53;85.26;101516.50;5031315;28;20045;-67
2022/08/30 00:58:49;;;;;;;0.47;0.40;;;;;;;19.49;84.99;101518.44;5015624;28;20123;-67
2022/08/30 01:01:16;;;;;;;1.60;0.45;;;;;;;19.60;84.83;101526.63;5022354;28;20037;-67
2022/08/30 01:03:42;;;;;;;0.47;0.47;;;;;;;19.64;84.36;101522.72;5009336;28;20021;-67
2022/08/30 01:06:08;;;;;;;2.17;0.55;;;;;;;19.71;83.84;101528.16;5020028;28;20034;-67
2022/08/30 01:08:34;;;;;;;0.73;0.60;;;;;;;19.63;84.23;101532.09;5028171;28;20040;-67
2022/08/30 01:11:02;;;;;;;2.95;0.60;;;;;;;19.55;85.05;101532.53;5030285;28;20041;-67
2022/08/30 01:13:28;;;;;;;1.95;0.50;;;;;;;19.45;85.58;101528.59;5022129;28;20029;-67
2022/08/30 01:15:54;;;;;;;0.70;0.40;;;;;;;19.51;85.71;101537.97;5032752;28;20046;-67
2022/08/30 01:18:22;;;;;;;0.73;0.52;;;;;;;19.38;86.44;101528.63;5028248;28;20084;-67
2022/08/30 01:21:14;;;;;;;0.50;0.50;;;;;;;19.44;86.96;101540.72;5032860;28;20037;-67
2022/08/30 01:23:43;;;;;;;0.75;0.60;;;;;;;19.50;87.00;101541.88;5028256;28;20037;-68
2022/08/30 01:26:10;;;;;;;1.50;0.60;;;;;;;19.61;86.75;101545.38;5030922;28;20497;-67
2022/08/30 01:28:38;;;;;;;0.90;0.40;;;;;;;19.67;86.24;101543.00;5029316;28;20029;-67
2022/08/30 01:31:03;;;;;;;1.15;0.38;;;;;;;19.62;86.29;101549.69;5030284;28;20069;-67
2022/08/30 01:33:29;;;;;;;0.90;0.60;;;;;;;19.61;86.52;101544.59;5026157;28;20610;-67
2022/08/30 01:36:02;;;;;;;1.48;0.50;;;;;;;19.72;86.13;101543.38;5014828;28;20441;-67
2022/08/30 01:38:44;;;;;;;0.52;0.50;;;;;;;19.75;85.58;101547.28;5031763;28;20025;-67
2022/08/30 01:41:18;;;;;;;0.50;0.50;;;;;;;19.77;85.19;101553.94;5024435;28;20112;-67
2022/08/30 01:43:44;;;;;;;1.40;0.40;;;;;;;19.75;85.21;101545.34;5025689;28;20038;-68
2022/08/30 01:46:11;;;;;;;1.20;0.70;;;;;;;19.70;85.14;101551.19;5026201;28;20511;-67
2022/08/30 01:48:38;;;;;;;0.50;0.50;;;;;;;19.66;85.20;101549.66;5029540;28;20513;-68
2022/08/30 01:51:05;;;;;;;1.58;0.57;;;;;;;19.56;84.99;101545.78;5027168;28;20112;-68
2022/08/30 01:53:31;;;;;;;2.10;0.68;;;;;;;19.56;85.08;101542.25;5026475;28;20482;-67
2022/08/30 01:55:57;;;;;;;0.73;0.50;;;;;;;19.51;85.31;101540.69;5028006;28;20141;-67
2022/08/30 01:58:22;;;;;;;0.75;0.45;;;;;;;19.51;85.80;101537.22;5026333;28;20569;-67
2022/08/30 02:00:48;;;;;;;0.88;0.63;;;;;;;19.48;85.66;101538.78;5023485;28;20060;-67
2022/08/30 02:03:14;;;;;;;0.93;0.60;;;;;;;19.45;85.61;101541.50;5027797;28;20374;-68
2022/08/30 02:05:39;;;;;;;1.13;0.50;;;;;;;19.59;85.45;101536.00;5026974;28;20045;-67
2022/08/30 02:08:05;;;;;;;0.47;0.40;;;;;;;19.54;85.24;101528.22;5010223;28;20037;-67
2022/08/30 02:10:30;;;;;;;0.35;0.28;;;;;;;19.46;85.11;101527.44;5014125;28;20113;-67
2022/08/30 02:12:56;;;;;;;1.27;0.60;;;;;;;19.58;84.19;101523.53;5024166;28;20033;-67
2022/08/30 02:15:21;;;;;;;1.83;0.43;;;;;;;19.57;84.43;101535.59;5012600;28;20033;-68
2022/08/30 02:17:47;;;;;;;1.63;0.50;;;;;;;19.53;84.45;101526.66;5030571;28;20040;-67
2022/08/30 02:20:12;;;;;;;0.98;0.50;;;;;;;19.64;84.24;101522.72;5030716;28;20317;-68
2022/08/30 02:22:38;;;;;;;0.38;0.22;;;;;;;19.63;84.00;101518.41;5008134;28;20231;-68
2022/08/30 02:25:06;;;;;;;0.75;0.30;;;;;;;19.67;83.92;101521.94;5030538;28;20029;-67
2022/08/30 02:27:31;;;;;;;1.75;0.68;;;;;;;19.71;84.05;101524.66;5027885;28;20032;-68
2022/08/30 02:29:56;;;;;;;1.25;0.30;;;;;;;19.71;84.03;101528.16;5027468;28;20033;-67
2022/08/30 02:32:22;;;;;;;0.30;0.25;;;;;;;19.65;83.66;101529.75;5027205;28;20033;-67
2022/08/30 02:34:48;;;;;;;0.30;0.30;;;;;;;19.71;83.50;101530.91;5024109;28;20032;-67
2022/08/30 02:37:14;;;;;;;0.47;0.32;;;;;;;19.52;83.47;101522.34;5018130;28;20056;-68
2022/08/30 02:39:40;;;;;;;0.47;0.47;;;;;;;19.51;83.34;101524.31;5028769;28;20048;-67
2022/08/30 02:42:05;;;;;;;2.67;0.38;;;;;;;19.57;82.63;101525.47;5032033;28;20037;-67
2022/08/30 02:44:31;;;;;;;0.75;0.50;;;;;;;19.55;82.56;101527.06;5017328;28;20109;-68
2022/08/30 02:46:56;;;;;;;0.70;0.43;;;;;;;19.51;82.46;101531.75;5026072;28;20029;-67
2022/08/30 02:49:22;;;;;;;0.65;0.52;;;;;;;19.48;83.01;101536.03;5016715;28;20036;-68
2022/08/30 02:51:48;;;;;;;0.55;0.38;;;;;;;19.47;83.19;101526.25;5016585;28;20489;-68
2022/08/30 02:54:18;;;;;;;0.88;0.40;;;;;;;19.52;83.27;101528.59;5027148;28;20559;-68
2022/08/30 02:56:48;;;;;;;0.88;0.63;;;;;;;19.58;82.78;101528.97;5027411;28;20091;-68
2022/08/30 02:59:14;;;;;;;0.50;0.40;;;;;;;19.59;82.95;101522.31;5012789;28;20045;-68
2022/08/30 03:01:40;;;;;;;0.70;0.43;;;;;;;19.56;82.48;101529.38;5025843;28;20311;-68
2022/08/30 03:04:05;;;;;;;0.50;0.40;;;;;;;19.64;81.91;101522.72;5024783;22;20029;-69
2022/08/30 03:06:31;;;;;;;1.73;0.50;;;;;;;19.60;81.81;101527.44;5048615;28;20033;-66
2022/08/30 03:08:57;;;;;;;0.63;0.52;;;;;;;19.56;81.64;101529.38;5056159;28;20028;-67
2022/08/30 03:11:22;;;;;;;0.32;0.30;;;;;;;19.59;81.56;101534.06;5069669;28;20029;-67
2022/08/30 03:13:48;;;;;;;0.40;0.30;;;;;;;19.55;81.40;101527.81;5063263;28;20033;-66
2022/08/30 03:16:14;;;;;;;0.75;0.45;;;;;;;19.54;81.85;101520.81;5067508;28;20492;-65
2022/08/30 03:18:42;;;;;;;0.38;0.38;;;;;;;19.37;82.37;101521.63;5070304;28;20059;-65
2022/08/30 03:21:13;;;;;;;0.88;0.60;;;;;;;19.33;82.94;101529.03;5066470;28;20036;-65
2022/08/30 03:23:39;;;;;;;0.40;0.32;;;;;;;19.30;82.76;101529.78;5064494;28;20024;-65
2022/08/30 03:26:06;;;;;;;0.65;0.40;;;;;;;19.31;82.58;101530.56;5070681;28;20443;-65
2022/08/30 03:28:32;;;;;;;1.08;0.60;;;;;;;19.26;82.68;101534.47;5069519;28;20403;-65
2022/08/30 03:30:57;;;;;;;0.40;0.35;;;;;;;19.24;82.86;101528.59;5066371;28;20115;-65
2022/08/30 03:33:23;;;;;;;2.28;0.55;;;;;;;19.24;83.19;101531.34;5063343;28;20021;-65
2022/08/30 03:35:48;;;;;;;0.68;0.55;;;;;;;19.19;83.38;101531.75;5070704;28;20040;-65
2022/08/30 03:38:15;;;;;;;0.93;0.50;;;;;;;19.26;83.65;101529.00;5067040;28;20028;-65
2022/08/30 03:40:40;;;;;;;1.65;0.55;;;;;;;19.39;83.27;101530.22;5067402;28;20134;-66
2022/08/30 03:43:06;;;;;;;0.52;0.32;;;;;;;19.33;83.64;101534.50;5056092;28;20410;-66
2022/08/30 03:45:32;;;;;;;0.40;0.40;;;;;;;19.31;83.37;101534.09;5051026;28;20086;-66
2022/08/30 03:47:57;;;;;;;0.75;0.40;;;;;;;19.33;83.22;101530.97;5063669;28;20044;-65
2022/08/30 03:50:23;;;;;;;1.83;0.40;;;;;;;19.33;83.72;101530.97;5066559;28;20036;-66
2022/08/30 03:52:49;;;;;;;0.50;0.40;;;;;;;19.29;83.54;101535.63;5064028;28;20029;-65
2022/08/30 03:55:14;;;;;;;2.25;0.50;;;;;;;19.35;83.92;101540.34;5064561;28;20408;-67
2022/08/30 03:57:41;;;;;;;2.20;0.30;;;;;;;19.32;84.02;101538.38;5050526;28;20032;-66
2022/08/30 04:00:07;;;;;;;1.08;0.50;;;;;;;19.32;83.67;101529.38;5053543;28;20036;-66
2022/08/30 04:02:37;;;;;;;1.27;0.50;;;;;;;19.31;83.79;101528.63;5058238;28;20090;-65
2022/08/30 04:05:03;;;;;;;1.23;0.50;;;;;;;19.29;83.76;101525.50;5060481;28;20048;-65
2022/08/30 04:07:29;;;;;;;0.43;0.38;;;;;;;19.27;84.01;101527.84;5069789;28;20369;-65
2022/08/30 04:09:54;;;;;;;0.90;0.50;;;;;;;19.29;83.44;101527.44;5065562;28;20102;-65
2022/08/30 04:12:20;;;;;;;0.73;0.50;;;;;;;19.31;84.03;101525.88;5058679;28;20072;-66
2022/08/30 04:14:45;;;;;;;0.77;0.47;;;;;;;19.26;84.38;101522.78;5064110;28;20082;-66
2022/08/30 04:17:10;;;;;;;0.70;0.70;;;;;;;19.28;84.95;101528.63;5046703;28;20541;-66
2022/08/30 04:19:36;;;;;;;0.43;0.32;;;;;;;19.41;84.06;101529.81;5036836;28;20037;-65
2022/08/30 04:22:01;;;;;;;0.47;0.32;;;;;;;19.45;83.45;101527.84;5069604;28;20029;-66
2022/08/30 04:24:27;;;;;;;1.88;0.60;;;;;;;19.47;83.65;101530.97;5066766;28;20120;-65
2022/08/30 04:26:52;;;;;;;0.60;0.40;;;;;;;19.35;83.83;101531.38;5058466;28;20489;-66
2022/08/30 04:29:18;;;;;;;1.17;0.50;;;;;;;19.40;83.50;101528.22;5069667;28;20033;-65
2022/08/30 04:31:44;;;;;;;0.50;0.32;;;;;;;19.40;83.67;101526.28;5063827;28;20036;-66
2022/08/30 04:34:11;;;;;;;1.23;0.45;;;;;;;19.36;83.70;101528.25;5067411;28;20033;-66
2022/08/30 04:36:37;;;;;;;1.15;0.40;;;;;;;19.28;83.70;101521.19;5049403;28;20097;-65
2022/08/30 04:39:02;;;;;;;0.88;0.45;;;;;;;19.24;84.28;101525.88;5053287;28;20041;-66
2022/08/30 04:41:28;;;;;;;0.70;0.40;;;;;;;19.23;84.37;101520.81;5069541;28;20484;-65
2022/08/30 04:43:53;;;;;;;0.82;0.60;;;;;;;19.35;83.84;101526.69;5069079;28;20084;-65
2022/08/30 04:46:19;;;;;;;4.35;0.68;;;;;;;19.40;83.55;101531.75;5064090;28;20439;-65
2022/08/30 04:48:45;;;;;;;0.70;0.45;;;;;;;19.35;83.43;101534.88;5052038;28;20067;-65
2022/08/30 04:51:14;;;;;;;0.55;0.32;;;;;;;19.31;83.74;101544.22;5069543;28;20072;-66
2022/08/30 04:53:41;;;;;;;0.82;0.40;;;;;;;19.31;84.07;101538.75;5051729;28;20391;-65
2022/08/30 04:56:09;;;;;;;1.42;0.60;;;;;;;19.30;84.14;101543.44;5057412;28;20120;-66
2022/08/30 04:58:34;;;;;;;0.55;0.35;;;;;;;19.32;84.24;101541.13;5066172;28;20040;-65
2022/08/30 05:01:00;;;;;;;0.68;0.50;;;;;;;19.39;84.07;101537.63;5062019;28;20052;-65
2022/08/30 05:03:26;;;;;;;0.77;0.57;;;;;;;19.50;83.64;101550.09;5067452;28;20038;-66
2022/08/30 05:05:51;;;;;;;1.90;0.50;;;;;;;19.53;83.80;101552.03;5054544;28;20031;-66
2022/08/30 05:08:20;;;;;;;0.73;0.52;;;;;;;19.56;83.73;101550.47;5062434;28;20085;-66
2022/08/30 05:10:50;;;;;;;0.52;0.35;;;;;;;19.56;83.71;101558.66;5069991;28;20036;-66
2022/08/30 05:13:17;;;;;;;1.20;0.60;;;;;;;19.61;83.83;101563.72;5054316;28;20064;-67
2022/08/30 05:15:43;;;;;;;0.65;0.55;;;;;;;19.66;83.50;101560.59;5061259;28;20045;-67
2022/08/30 05:18:10;;;;;;;1.40;0.50;;;;;;;19.64;83.20;101565.69;5056992;28;20179;-66
2022/08/30 05:20:36;;;;;;;0.50;0.47;;;;;;;19.58;83.48;101564.50;5061763;28;20021;-66
2022/08/30 05:23:03;;;;;;;0.73;0.43;;;;;;;19.60;83.79;101568.44;5050654;28;20068;-66
2022/08/30 05:25:32;;;;;;;1.25;0.57;;;;;;;19.67;83.58;101562.94;5059582;28;20044;-66
2022/08/30 05:27:58;;;;;;;0.88;0.40;;;;;;;19.71;83.46;101568.38;5063174;28;20064;-66
2022/08/30 05:30:26;;;;;;;0.73;0.50;;;;;;;19.70;83.87;101567.59;5051493;28;20043;-66
2022/08/30 05:32:52;;;;;;;0.47;0.30;;;;;;;19.77;83.57;101569.56;5066051;28;20341;-66
2022/08/30 05:35:19;;;;;;;4.10;0.70;;;;;;;19.78;83.49;101571.88;5054535;28;20044;-67
2022/08/30 05:37:45;;;;;;;0.65;0.43;;;;;;;19.78;83.20;101566.41;5059417;28;20129;-66
2022/08/30 05:40:31;;;;;;;3.22;0.60;;;;;;;19.73;83.28;101558.63;5056358;28;20056;-66
2022/08/30 05:42:56;;;;;;;0.82;0.47;;;;;;;19.76;83.37;101571.50;4966269;28;20047;-67
2022/08/30 05:45:22;;;;;;;0.52;0.30;;;;;;;19.84;82.59;101580.47;4967868;28;20045;-66
2022/08/30 05:47:47;;;;;;;0.52;0.38;;;;;;;19.92;82.60;101576.53;4974442;28;20050;-66
2022/08/30 05:50:13;;;;;;;4.60;0.60;;;;;;;20.02;81.87;101572.19;4973558;28;20037;-66
2022/08/30 05:52:41;;;;;;;2.08;0.45;;;;;;;19.98;82.01;101571.44;4970604;28;20038;-66
2022/08/30 05:55:08;;;;;;;0.90;0.60;;;;;;;19.97;82.46;101580.81;4966867;28;20063;-66
2022/08/30 05:57:36;;;;;;;0.30;0.30;;;;;;;20.00;82.05;101577.28;4961228;28;20050;-66
2022/08/30 06:00:06;;;;;;;2.08;0.50;;;;;;;20.04;82.00;101581.56;4974479;28;20051;-66
2022/08/30 06:02:37;;;;;;;1.50;0.60;;;;;;;20.11;81.87;101586.25;4980232;28;20054;-66
2022/08/30 06:05:03;;;;;;;0.80;0.45;;;;;;;20.14;81.46;101583.50;4959809;28;20031;-66
2022/08/30 06:07:29;;;;;;;0.45;0.40;;;;;;;20.16;81.37;101589.34;4959157;28;20205;-66
2022/08/30 06:09:55;;;;;;;0.57;0.40;;;;;;;20.21;81.33;101580.00;4966337;28;20099;-66
2022/08/30 06:12:20;;;;;;;0.30;0.30;;;;;;;20.26;81.21;101588.56;4977175;28;20042;-66
2022/08/30 06:14:46;;;;;;;2.75;0.40;;;;;;;20.29;80.84;101585.03;4969120;28;20054;-66
2022/08/30 06:17:31;;;;;;;2.15;0.70;;;;;;;20.31;81.23;101582.66;4967774;28;20121;-66
2022/08/30 06:19:57;;;;;;;1.20;0.50;;;;;;;20.29;81.20;101585.03;4948967;28;20094;-66
2022/08/30 06:22:22;;;;;;;0.88;0.52;;;;;;;20.34;81.38;101583.84;4982927;28;20036;-66
2022/08/30 06:24:48;;;;;;;0.60;0.40;;;;;;;20.37;80.81;101585.78;4977314;28;20050;-66
2022/08/30 06:27:14;;;;;;;0.40;0.35;;;;;;;20.39;80.73;101594.38;4984842;28;20122;-66
2022/08/30 06:29:40;;;;;;;0.47;0.30;;;;;;;20.40;81.03;101587.72;4983729;28;20069;-66
2022/08/30 06:32:07;;;;;;;0.47;0.30;;;;;;;20.43;80.97;101589.66;4982833;28;20105;-66
2022/08/30 06:34:32;;;;;;;0.40;0.40;;;;;;;20.53;80.84;101591.56;4986906;28;20031;-66
2022/08/30 06:36:58;;;;;;;0.65;0.40;;;;;;;20.59;80.78;101587.22;4984289;28;20054;-66
2022/08/30 06:39:23;;;;;;;0.30;0.30;;;;;;;20.69;80.72;101586.41;4976252;28;20157;-66
2022/08/30 06:41:48;;;;;;;0.35;0.30;;;;;;;20.73;80.79;101586.38;4979318;28;20760;-67
2022/08/30 06:44:25;;;;;;;0.63;0.43;;;;;;;20.82;80.53;101594.91;4963893;28;20042;-66
2022/08/30 06:46:51;;;;;;;0.57;0.40;;;;;;;20.87;80.41;101591.72;4971319;28;20038;-67
2022/08/30 06:49:16;;;;;;;0.52;0.32;;;;;;;20.91;79.86;101592.50;4971750;28;20407;-67
2022/08/30 06:51:42;;;;;;;1.10;0.17;;;;;;;20.97;80.24;101588.16;4982637;28;20490;-65
2022/08/30 06:54:10;;;;;;;0.50;0.25;;;;;;;21.01;80.23;101595.19;4984209;28;20073;-67
2022/08/30 06:56:36;;;;;;;3.42;0.50;;;;;;;21.04;80.11;101602.59;5016843;28;20048;-66
2022/08/30 06:59:02;;;;;;;0.47;0.30;;;;;;;21.07;79.77;101588.13;5070577;28;20108;-66
2022/08/30 07:01:29;;;;;;;0.80;0.52;;;;;;;21.08;79.84;101597.88;5040997;28;20040;-66
2022/08/30 07:03:55;;;;;;;4.28;0.47;;;;;;;20.97;80.12;101588.94;5051141;28;20028;-66
2022/08/30 07:06:22;;;;;;;1.13;0.52;;;;;;;20.97;80.39;101601.84;5061993;28;20497;-68
2022/08/30 07:08:49;;;;;;;2.67;0.38;;;;;;;20.95;81.00;101596.78;5044693;28;20021;-66
2022/08/30 07:11:24;;;;;;;0.63;0.55;;;;;;;20.99;80.91;101597.53;5070752;28;20033;-67
2022/08/30 07:13:50;;;;;;;0.55;0.52;;;;;;;21.04;80.92;101602.59;5069732;28;20037;-66
2022/08/30 07:16:15;;;;;;;0.38;0.30;;;;;;;21.11;80.72;101610.00;5055189;28;20116;-66
2022/08/30 07:18:50;;;;;;;0.45;0.30;;;;;;;21.16;81.03;101602.13;5063419;28;20039;-66
2022/08/30 07:21:19;;;;;;;2.88;0.40;;;;;;;21.18;80.92;101607.19;5070062;28;20043;-66
2022/08/30 07:23:47;;;;;;;1.70;0.45;;;;;;;21.19;80.74;101603.28;5060624;28;20025;-67
2022/08/30 07:26:15;;;;;;;0.45;0.40;;;;;;;21.28;80.70;101611.81;5055441;28;20051;-66
2022/08/30 07:28:42;;;;;;;0.68;0.43;;;;;;;21.36;81.21;101597.66;5057043;28;20029;-67
2022/08/30 07:31:09;;;;;;;0.63;0.57;;;;;;;21.38;80.45;101611.75;5068861;28;20047;-66
2022/08/30 07:33:35;;;;;;;1.52;0.60;;;;;;;21.32;80.85;101613.34;5059881;28;20447;-66
2022/08/30 07:36:00;;;;;;;0.40;0.30;;;;;;;21.36;80.53;101616.84;5069357;28;20139;-66
2022/08/30 07:38:27;;;;;;;0.40;0.32;;;;;;;21.47;80.10;101622.22;5055404;28;20390;-65
2022/08/30 07:40:52;;;;;;;0.57;0.35;;;;;;;21.49;79.84;101617.91;5053217;28;20048;-66
2022/08/30 07:43:18;;;;;;;2.40;0.40;;;;;;;21.58;79.10;101615.47;5042806;28;20044;-66
2022/08/30 07:45:43;;;;;;;2.47;0.65;;;;;;;21.43;79.13;101611.31;5066002;28;20024;-66
2022/08/30 07:48:10;;;;;;;0.63;0.25;;;;;;;21.44;78.94;101615.63;5065612;28;20127;-66
2022/08/30 07:50:37;;;;;;;0.17;0.17;;;;;;;21.39;79.50;101610.56;5051084;28;20342;-66
2022/08/30 07:53:03;;;;;;;0.20;0.20;;;;;;;21.35;79.87;101622.75;5062494;28;20028;-67
2022/08/30 07:55:29;;;;;;;0.95;0.40;;;;;;;21.41;79.91;101613.66;5063743;28;20057;-66
2022/08/30 07:57:54;;;;;;;0.40;0.40;;;;;;;21.31;80.12;101625.50;5070609;28;20114;-66
2022/08/30 08:00:20;;;;;;;0.65;0.32;;;;;;;21.39;79.21;101632.47;5047281;28;20498;-66
2022/08/30 08:02:45;;;;;;;2.83;0.20;;;;;;;21.44;79.37;101628.53;5058264;28;20029;-66
2022/08/30 08:05:13;;;;;;;1.00;0.45;;;;;;;21.52;79.35;101641.75;5068347;28;20476;-66
2022/08/30 08:07:38;;;;;;;0.65;0.40;;;;;;;21.58;79.47;101626.44;5064364;28;20052;-68
2022/08/30 08:10:04;;;;;;;0.10;0.10;;;;;;;21.63;79.28;101635.41;5061711;28;20029;-66
2022/08/30 08:12:30;;;;;;;0.75;0.30;;;;;;;21.70;79.65;101632.63;5060854;28;20031;-66
2022/08/30 08:14:55;;;;;;;0.35;0.30;;;;;;;21.79;79.62;101633.69;5067129;28;20520;-66
2022/08/30 08:17:20;;;;;;;1.25;0.47;;;;;;;21.86;79.57;101632.88;5057723;28;20025;-66
2022/08/30 08:19:46;;;;;;;0.30;0.30;;;;;;;21.91;80.00;101638.69;5065954;28;20577;-66
2022/08/30 08:22:11;;;;;;;0.35;0.28;;;;;;;21.89;79.11;101637.56;5065003;28;20025;-66
2022/08/30 08:24:37;;;;;;;0.30;0.30;;;;;;;22.04;78.82;101642.47;5063074;28;20103;-66
2022/08/30 08:27:02;;;;;;;0.13;0.13;;;;;;;22.16;78.54;101646.66;5062937;28;20033;-65
2022/08/30 08:29:28;;;;;;;0.60;0.32;;;;;;;22.33;77.60;101646.47;5059406;28;20040;-66
2022/08/30 08:31:55;;;;;;;0.30;0.30;;;;;;;22.52;76.69;101650.53;5045515;28;20071;-66
2022/08/30 08:34:22;;;;;;;0.10;0.10;;;;;;;22.62;76.31;101646.91;5058891;28;20402;-66
2022/08/30 08:36:49;;;;;;;2.38;0.30;;;;;;;22.89;77.04;101646.94;5024977;28;20048;-66
2022/08/30 08:39:14;;;;;;;0.93;0.30;;;;;;;23.12;75.72;101656.00;5043659;28;20504;-66
2022/08/30 08:42:02;;;;;;;1.85;0.32;;;;;;;23.34;73.97;101650.22;5042710;28;20064;-66
2022/08/30 08:44:58;;;;;;;0.40;0.35;;;;;;;23.49;72.27;101659.78;5063527;28;20031;-66
2022/08/30 08:47:28;;;;;;;1.42;0.30;;;;;;;23.49;70.67;101659.78;5061877;28;20109;-67
2022/08/30 08:49:58;;;;;;;0.50;0.30;;;;;;;23.51;70.10;101652.69;5068768;28;20544;-66
2022/08/30 08:55:23;;;;;;;0.25;0.20;;;;;;;23.20;70.44;101651.97;5070335;28;20044;-67
2022/08/30 08:57:48;;;;;;;0.30;0.30;;;;;;;23.13;70.88;101651.31;5065639;28;20020;-66
2022/08/30 09:00:14;;;;;;;0.22;0.20;;;;;;;23.01;71.36;101652.66;5060484;28;20408;-67
2022/08/30 09:02:55;;;;;;;1.00;0.45;;;;;;;22.97;71.69;101654.69;5065587;28;20041;-66
2022/08/30 09:05:24;;;;;;;0.30;0.30;;;;;;;22.83;71.77;101652.13;5069718;28;20477;-66
2022/08/30 09:07:57;;;;;;;0.20;0.20;;;;;;;22.77;72.17;101651.03;5069468;28;20060;-67
2022/08/30 09:10:25;;;;;;;0.75;0.25;;;;;;;22.79;73.05;101656.09;5064594;28;20035;-66
2022/08/30 09:12:50;;;;;;;0.50;0.30;;;;;;;22.89;72.62;101655.97;5064344;28;20493;-66
2022/08/30 09:15:22;;;;;;;0.20;0.20;;;;;;;22.86;73.12;101656.78;5043352;28;20132;-67
2022/08/30 09:17:52;;;;;;;0.30;0.30;;;;;;;22.92;72.27;101660.63;5056285;28;20043;-66
2022/08/30 09:20:35;;;;;;;0.60;0.40;;;;;;;22.93;71.43;101662.19;5046593;28;20032;-66
2022/08/30 09:23:22;;;;;;;1.15;0.35;;;;;;;22.95;72.49;101664.50;5061647;28;20048;-67
2022/08/30 09:25:53;;;;;;;0.40;0.30;;;;;;;22.95;72.88;101659.03;5059746;28;20067;-66
2022/08/30 09:28:28;;;;;;;0.30;0.30;;;;;;;23.05;72.11;101658.84;5061663;28;20106;-66
2022/08/30 09:31:24;;;;;;;0.77;0.50;;;;;;;22.85;72.09;101660.72;5063608;28;20040;-67
2022/08/30 09:34:02;;;;;;;1.15;0.30;;;;;;;22.84;71.87;101664.66;5051510;28;20052;-66
2022/08/30 09:36:32;;;;;;;0.25;0.20;;;;;;;22.58;71.86;101657.16;5063820;28;20082;-66
2022/08/30 09:39:04;;;;;;;0.40;0.30;;;;;;;22.67;71.71;101662.94;5071592;28;20041;-67
2022/08/30 09:41:40;;;;;;;0.40;0.40;;;;;;;22.68;71.93;101670.00;5059336;28;20086;-67
2022/08/30 09:44:17;;;;;;;0.30;0.30;;;;;;;22.70;70.96;101664.09;5044155;28;20056;-66
2022/08/30 09:46:51;;;;;;;0.28;0.20;;;;;;;22.72;71.18;101667.97;5068568;28;20028;-66
2022/08/30 09:49:34;;;;;;;0.40;0.32;;;;;;;22.76;72.44;101667.94;5054578;28;20044;-67
2022/08/30 09:52:36;;;;;;;0.47;0.32;;;;;;;22.80;72.28;101674.91;5057238;28;20312;-66
2022/08/30 09:55:16;;;;;;;0.40;0.30;;;;;;;22.90;72.45;101674.00;5060332;28;20188;-67
2022/08/30 09:58:00;;;;;;;0.20;0.20;;;;;;;22.96;72.30;101661.34;5069448;28;20169;-67
2022/08/30 10:00:30;;;;;;;0.55;0.47;;;;;;;23.01;71.73;101669.16;5061245;28;20111;-67
2022/08/30 10:03:01;;;;;;;0.60;0.50;;;;;;;22.99;70.30;101668.78;5072165;28;20076;-66
2022/08/30 10:05:51;;;;;;;0.20;0.20;;;;;;;22.96;70.19;101672.34;5066700;28;20048;-66
2022/08/30 10:08:24;;;;;;;1.17;0.40;;;;;;;22.86;69.94;101680.75;5064933;28;20036;-66
2022/08/30 10:10:54;;;;;;;0.40;0.30;;;;;;;22.83;69.17;101676.84;5057469;28;20032;-66
2022/08/30 10:13:35;;;;;;;0.28;0.28;;;;;;;22.68;68.40;101680.19;5052242;28;20083;-67
2022/08/30 10:16:09;;;;;;;0.30;0.30;;;;;;;22.76;68.13;101667.94;5071381;28;20032;-67
2022/08/30 10:19:00;;;;;;;0.35;0.32;;;;;;;22.81;68.59;101678.44;5071051;28;20068;-66
2022/08/30 10:21:51;;;;;;;1.05;0.38;;;;;;;22.82;68.07;101680.00;5018687;28;20446;-67
2022/08/30 10:24:23;;;;;;;2.35;0.20;;;;;;;22.84;67.05;101683.88;5070668;28;20055;-66
2022/08/30 10:27:07;;;;;;;0.30;0.20;;;;;;;22.91;67.53;101683.81;5072108;28;20031;-66
2022/08/30 10:29:41;;;;;;;0.30;0.30;;;;;;;22.93;67.17;101678.69;5059699;28;20037;-67
2022/08/30 10:32:19;;;;;;;0.32;0.30;;;;;;;22.95;66.80;101679.03;5070184;28;20366;-67
2022/08/30 10:34:53;;;;;;;2.38;0.40;;;;;;;23.03;66.46;101671.47;5063490;28;20036;-67
2022/08/30 10:37:30;;;;;;;0.20;0.20;;;;;;;23.08;65.66;101671.78;5066023;28;20031;-66
2022/08/30 10:41:11;;;;;;;0.40;0.20;;;;;;;23.11;64.20;101673.69;5069128;28;20033;-66
2022/08/30 10:42:51;;;;;;;0.38;0.30;;;;;;;23.24;65.02;101680.19;5071062;28;20036;-66
2022/08/30 10:45:17;;;;;;;1.45;0.30;;;;;;;23.40;64.11;101667.78;5062668;28;20064;-67
2022/08/30 10:48:07;;;;;;;0.50;0.35;;;;;;;23.72;62.89;101668.03;5070514;28;20056;-67
2022/08/30 10:50:40;;;;;;;1.20;0.25;;;;;;;24.00;61.19;101667.53;5069248;28;20478;-67
2022/08/30 10:53:14;;;;;;;0.43;0.40;;;;;;;24.26;58.31;101666.66;5068866;28;20036;-66
2022/08/30 10:56:09;;;;;;;0.50;0.40;;;;;;;24.20;57.84;101670.34;5070806;28;20078;-67
2022/08/30 10:58:39;;;;;;;0.50;0.40;;;;;;;24.54;57.97;101663.34;5063025;28;20048;-67
2022/08/30 11:01:14;;;;;;;0.30;0.30;;;;;;;24.78;56.52;101670.31;5064049;28;20098;-66
2022/08/30 11:03:59;;;;;;;0.95;0.40;;;;;;;24.98;56.11;101668.31;5058396;28;20020;-67
2022/08/30 11:06:51;;;;;;;0.77;0.30;;;;;;;25.13;56.45;101670.72;5039563;28;20036;-66
2022/08/30 11:09:39;;;;;;;0.40;0.40;;;;;;;25.23;55.85;101669.69;5062214;28;20036;-66
2022/08/30 11:12:26;;;;;;;1.00;0.40;;;;;;;25.20;54.17;101670.56;5042212;28;20045;-67
2022/08/30 11:14:53;;;;;;;0.20;0.20;;;;;;;25.17;54.39;101669.44;5057287;28;20040;-67
2022/08/30 11:17:22;;;;;;;0.35;0.28;;;;;;;25.17;54.13;101665.91;5051937;28;20067;-66
2022/08/30 11:19:48;;;;;;;2.42;0.30;;;;;;;25.26;53.58;101669.59;5056354;28;20084;-66
2022/08/30 11:22:21;;;;;;;0.40;0.20;;;;;;;25.46;52.79;101664.03;5070461;28;20036;-66
2022/08/30 11:25:13;;;;;;;0.35;0.30;;;;;;;25.70;52.51;101648.84;5053744;28;20040;-66
2022/08/30 11:27:55;;;;;;;0.30;0.25;;;;;;;26.15;51.83;101655.13;5055566;28;20059;-66
2022/08/30 11:30:23;;;;;;;0.43;0.30;;;;;;;26.48;51.60;101653.78;5070674;28;20516;-66
2022/08/30 11:33:29;;;;;;;0.25;0.22;;;;;;;26.73;51.34;101651.09;5056800;28;20033;-67
2022/08/30 11:35:55;;;;;;;0.40;0.32;;;;;;;26.70;53.26;101660.28;5060365;28;20044;-66
2022/08/30 11:38:24;;;;;;;0.40;0.30;;;;;;;26.51;53.58;101652.13;5061228;28;20075;-67